createdAt,value
2018-09-04T00:00:58.611Z,99756.94
2018-09-04T00:02:34.932Z,99631.90
2018-09-04T00:04:11.451Z,99574.34
2018-09-04T00:05:47.902Z,99561.05
2018-09-04T00:07:24.074Z,99599.49
2018-09-04T00:09:00.138Z,99687.36
2018-09-04T00:10:35.754Z,99746.03
2018-09-04T00:12:11.607Z,99559.70
2018-09-04T00:13:46.847Z,99383.85
2018-09-04T00:15:22.528Z,99320.59
2018-09-04T00:16:58.369Z,99414.11
2018-09-04T00:18:33.587Z,99479.62
2018-09-04T00:20:09.037Z,99535.42
2018-09-04T00:21:44.241Z,99614.62
2018-09-04T00:23:20.985Z,99672.78
2018-09-04T00:24:56.303Z,99731.73
2018-09-04T00:26:32.619Z,99764.58
2018-09-04T00:28:07.959Z,99779.72
2018-09-04T00:29:43.566Z,99790.44
2018-09-04T00:31:19.293Z,99786.00
2018-09-04T00:32:54.651Z,99802.53
2018-09-04T00:36:14.383Z,99839.38
2018-09-04T00:37:50.665Z,99864.19
2018-09-04T00:39:26.016Z,99857.66
2018-09-04T00:41:02.638Z,99834.45
2018-09-04T00:42:38.516Z,99824.72
2018-09-04T00:44:17.093Z,99853.94
2018-09-04T00:45:53.363Z,99905.16
2018-09-04T00:47:28.717Z,99956.25
2018-09-04T00:49:04.443Z,100011.80
2018-09-04T00:50:39.680Z,100107.32
2018-09-04T00:52:15.076Z,100143.27
2018-09-04T00:53:50.345Z,100145.49
2018-09-04T00:55:27.198Z,100118.55
2018-09-04T00:57:02.519Z,100048.22
2018-09-04T00:58:38.010Z,100026.48
2018-09-04T01:00:15.081Z,100026.96
2018-09-04T01:01:50.451Z,99995.00
2018-09-04T01:03:25.996Z,99830.72
2018-09-04T01:05:01.436Z,99832.46
2018-09-04T01:06:37.521Z,99861.33
2018-09-04T01:08:13.072Z,99886.63
2018-09-04T01:09:48.420Z,99891.07
2018-09-04T01:11:23.784Z,99923.50
2018-09-04T01:12:59.489Z,99979.53
2018-09-04T01:14:35.456Z,100038.19
2018-09-04T01:16:12.284Z,100063.89
2018-09-04T01:17:48.169Z,100043.13
2018-09-04T01:19:24.328Z,100029.41
2018-09-04T01:21:00.008Z,100018.28
2018-09-04T01:22:35.240Z,100002.75
2018-09-04T01:24:11.157Z,99976.56
2018-09-04T01:25:46.843Z,99912.13
2018-09-04T01:27:22.164Z,99822.83
2018-09-04T01:28:57.508Z,99804.80
2018-09-04T01:30:33.794Z,99810.95
2018-09-04T01:32:10.419Z,99879.31
2018-09-04T01:33:45.820Z,100001.00
2018-09-04T01:35:21.085Z,100084.13
2018-09-04T01:36:56.419Z,100043.70
2018-09-04T01:38:32.362Z,99922.38
2018-09-04T01:40:07.696Z,99890.89
2018-09-04T01:41:43.024Z,99862.14
2018-09-04T01:43:18.258Z,99934.08
2018-09-04T01:44:54.204Z,99994.42
2018-09-04T01:46:30.385Z,100009.13
2018-09-04T01:48:06.465Z,100018.88
2018-09-04T01:49:41.882Z,100017.52
2018-09-04T01:51:17.588Z,99997.13
2018-09-04T01:52:52.760Z,99949.13
2018-09-04T01:54:27.989Z,99901.23
2018-09-04T01:56:03.497Z,99800.45
2018-09-04T01:57:41.181Z,99651.86
2018-09-04T01:59:17.236Z,99578.69
2018-09-04T02:00:52.902Z,99538.03
2018-09-04T02:02:28.157Z,99551.22
2018-09-04T02:04:03.985Z,99598.25
2018-09-04T02:05:39.291Z,99693.64
2018-09-04T02:07:14.506Z,99740.13
2018-09-04T02:08:49.776Z,99806.25
2018-09-04T02:10:25.441Z,99773.02
2018-09-04T02:12:01.043Z,99743.67
2018-09-04T02:13:36.356Z,99700.27
2018-09-04T02:15:13.914Z,99688.72
2018-09-04T02:16:50.046Z,99711.77
2018-09-04T02:18:25.267Z,99678.96
2018-09-04T02:20:00.594Z,99667.02
2018-09-04T02:21:35.837Z,99598.39
2018-09-04T02:23:11.739Z,99552.28
2018-09-04T02:28:22.920Z,99538.14
2018-09-04T02:29:58.244Z,99592.59
2018-09-04T02:31:34.013Z,99625.34
2018-09-04T02:33:09.292Z,99669.73
2018-09-04T02:34:44.933Z,99758.07
2018-09-04T02:36:21.186Z,99807.28
2018-09-04T02:37:56.662Z,99857.51
2018-09-04T02:39:32.530Z,99858.38
2018-09-04T02:41:09.000Z,99821.14
2018-09-04T02:42:45.701Z,99792.73
2018-09-04T02:44:21.296Z,99750.57
2018-09-04T02:45:57.315Z,99726.16
2018-09-04T02:47:32.892Z,99672.15
2018-09-04T02:49:10.063Z,99616.22
2018-09-04T02:50:46.210Z,99575.84
2018-09-04T02:52:21.794Z,99488.69
2018-09-04T02:53:57.579Z,99513.96
2018-09-04T02:55:32.934Z,99612.74
2018-09-04T02:57:08.254Z,99641.96
2018-09-04T02:58:43.793Z,99654.91
2018-09-04T03:00:19.712Z,99684.61
2018-09-04T03:01:55.100Z,99718.73
2018-09-04T03:03:30.292Z,99732.45
2018-09-04T03:05:05.919Z,99736.02
2018-09-04T03:06:42.463Z,99700.51
2018-09-04T03:08:17.647Z,99659.34
2018-09-04T03:09:52.842Z,99627.80
2018-09-04T03:11:28.168Z,99651.42
2018-09-04T03:13:03.796Z,99658.95
2018-09-04T03:14:39.020Z,99588.97
2018-09-04T03:16:14.565Z,99561.41
2018-09-04T03:17:50.070Z,99585.41
2018-09-04T03:21:07.789Z,99490.66
2018-09-04T03:22:43.440Z,99355.05
2018-09-04T03:24:18.658Z,99415.34
2018-09-04T03:25:54.424Z,99475.99
2018-09-04T03:27:29.564Z,99536.74
2018-09-04T03:29:04.937Z,99601.39
2018-09-04T03:30:41.015Z,99573.57
2018-09-04T03:32:16.690Z,99489.30
2018-09-04T03:33:52.025Z,99490.17
2018-09-04T03:35:27.349Z,99559.77
2018-09-04T03:37:03.033Z,99607.67
2018-09-04T03:38:38.651Z,99608.54
2018-09-04T03:40:14.133Z,99585.50
2018-09-04T03:41:49.784Z,99487.09
2018-09-04T03:43:25.011Z,99382.70
2018-09-04T03:45:00.789Z,99331.77
2018-09-04T03:46:36.946Z,99255.75
2018-09-04T03:48:12.645Z,99201.33
2018-09-04T03:49:51.512Z,99137.14
2018-09-04T03:51:26.779Z,99011.83
2018-09-04T03:53:02.835Z,98981.78
2018-09-04T03:54:38.067Z,99006.56
2018-09-04T03:56:13.767Z,99014.04
2018-09-04T03:57:49.047Z,99029.05
2018-09-04T03:59:26.012Z,99018.46
2018-09-04T04:01:01.256Z,98992.81
2018-09-04T04:02:36.771Z,98972.93
2018-09-04T04:04:11.896Z,98919.53
2018-09-04T04:05:47.059Z,98957.96
2018-09-04T04:07:22.292Z,99011.10
2018-09-04T04:08:57.745Z,99065.73
2018-09-04T04:10:32.917Z,99070.55
2018-09-04T04:12:08.214Z,99096.70
2018-09-04T04:13:45.897Z,99143.02
2018-09-04T04:15:21.293Z,99150.63
2018-09-04T04:16:56.551Z,99196.14
2018-09-04T04:18:31.721Z,99306.31
2018-09-04T04:20:07.135Z,99313.30
2018-09-04T04:21:48.906Z,99347.97
2018-09-04T04:23:24.380Z,99340.49
2018-09-04T04:24:59.536Z,99410.86
2018-09-04T04:26:36.827Z,99417.00
2018-09-04T04:28:13.292Z,99417.00
2018-09-04T04:29:49.400Z,99397.07
2018-09-04T04:31:25.879Z,99389.20
2018-09-04T04:33:01.199Z,99368.90
2018-09-04T04:34:36.946Z,99294.47
2018-09-04T04:36:12.148Z,99205.59
2018-09-04T04:37:47.862Z,99226.46
2018-09-04T04:39:23.178Z,99249.45
2018-09-04T04:40:59.812Z,99177.28
2018-09-04T04:42:35.090Z,99107.59
2018-09-04T04:44:10.213Z,99113.27
2018-09-04T04:45:46.273Z,99162.78
2018-09-04T04:47:27.436Z,99219.47
2018-09-04T04:49:02.929Z,99229.44
2018-09-04T04:50:38.197Z,99298.66
2018-09-04T04:52:13.336Z,99301.73
2018-09-04T04:53:49.630Z,99310.95
2018-09-04T04:55:24.888Z,99292.38
2018-09-04T04:57:00.101Z,99263.71
2018-09-04T04:58:38.379Z,99257.55
2018-09-04T05:00:16.314Z,99219.95
2018-09-04T05:01:53.916Z,99262.36
2018-09-04T05:03:30.195Z,99298.75
2018-09-04T05:05:06.290Z,99343.40
2018-09-04T05:06:41.972Z,99336.75
2018-09-04T05:08:17.162Z,99287.57
2018-09-04T05:09:52.980Z,99227.56
2018-09-04T05:11:28.552Z,99172.33
2018-09-04T05:13:05.368Z,99078.71
2018-09-04T05:14:41.482Z,99047.41
2018-09-04T05:16:16.889Z,99084.87
2018-09-04T05:17:52.032Z,99131.67
2018-09-04T05:19:27.795Z,99175.52
2018-09-04T05:21:03.129Z,99110.78
2018-09-04T05:22:38.292Z,99136.58
2018-09-04T05:24:16.474Z,99178.98
2018-09-04T05:25:52.636Z,99197.04
2018-09-04T05:27:28.274Z,99218.81
2018-09-04T05:29:03.729Z,99133.89
2018-09-04T05:30:39.144Z,99163.98
2018-09-04T05:32:19.624Z,99254.22
2018-09-04T05:33:54.917Z,99335.64
2018-09-04T05:35:34.338Z,99463.11
2018-09-04T05:37:09.914Z,99510.02
2018-09-04T05:38:46.004Z,99400.70
2018-09-04T05:40:23.447Z,99403.39
2018-09-04T05:43:02.933Z,99421.48
2018-09-04T05:44:39.179Z,99359.13
2018-09-04T05:46:19.647Z,99383.09
2018-09-04T05:48:09.380Z,99415.36
2018-09-04T05:49:50.036Z,99431.81
2018-09-04T05:51:25.329Z,99436.63
2018-09-04T05:53:00.628Z,99484.11
2018-09-04T05:54:35.935Z,99663.11
2018-09-04T05:56:17.993Z,99782.93
2018-09-04T05:58:02.503Z,99824.60
2018-09-04T05:59:43.880Z,99772.30
2018-09-04T06:01:27.556Z,99797.20
2018-09-04T06:03:08.321Z,99868.61
2018-09-04T06:04:49.700Z,99872.31
2018-09-04T06:06:30.670Z,99946.37
2018-09-04T06:08:08.506Z,100013.52
2018-09-04T06:09:45.922Z,100020.67
2018-09-04T06:11:23.611Z,99854.91
2018-09-04T06:13:06.500Z,99653.97
2018-09-04T06:14:42.112Z,99542.22
2018-09-04T06:16:18.590Z,99474.50
2018-09-04T06:17:53.880Z,99446.19
2018-09-04T06:19:30.577Z,99448.79
2018-09-04T06:21:11.761Z,99384.69
2018-09-04T06:23:02.391Z,99333.38
2018-09-04T06:24:46.549Z,99405.47
2018-09-04T06:26:21.843Z,99521.03
2018-09-04T06:27:57.061Z,99602.59
2018-09-04T06:29:32.333Z,99736.92
2018-09-04T06:31:08.936Z,99665.56
2018-09-04T06:32:45.975Z,99606.65
2018-09-04T06:34:21.372Z,99576.92
2018-09-04T06:35:57.592Z,99572.39
2018-09-04T06:37:34.195Z,99604.43
2018-09-04T06:39:16.331Z,99660.25
2018-09-04T06:40:56.448Z,99737.02
2018-09-04T06:42:34.555Z,99764.90
2018-09-04T06:44:09.964Z,99713.10
2018-09-04T06:45:46.539Z,99616.50
2018-09-04T06:47:21.732Z,99593.36
2018-09-04T06:48:57.552Z,99561.91
2018-09-04T06:50:32.897Z,99561.04
2018-09-04T06:52:11.795Z,99628.81
2018-09-04T06:53:47.529Z,99788.15
2018-09-04T06:55:23.457Z,99985.34
2018-09-04T06:56:59.378Z,100162.57
2018-09-04T06:58:35.316Z,100184.80
2018-09-04T07:00:16.721Z,100272.93
2018-09-04T07:01:53.921Z,100280.48
2018-09-04T07:03:29.908Z,100265.41
2018-09-04T07:05:06.413Z,100242.77
2018-09-04T07:06:44.222Z,100155.59
2018-09-04T07:08:22.369Z,100081.75
2018-09-04T07:09:58.631Z,100010.73
2018-09-04T07:11:33.883Z,99971.22
2018-09-04T07:13:11.801Z,99929.41
2018-09-04T07:14:48.188Z,99940.15
2018-09-04T07:16:25.110Z,100002.71
2018-09-04T07:18:03.726Z,100142.75
2018-09-04T07:19:39.368Z,100061.95
2018-09-04T07:21:15.502Z,100042.73
2018-09-04T07:22:50.886Z,100115.20
2018-09-04T07:24:27.438Z,100272.27
2018-09-04T07:26:03.544Z,100235.19
2018-09-04T07:27:42.633Z,100327.44
2018-09-04T07:29:17.913Z,100482.42
2018-09-04T07:30:56.390Z,100612.09
2018-09-04T07:32:33.531Z,100794.10
2018-09-04T07:34:11.025Z,101070.66
2018-09-04T07:35:49.668Z,101024.19
2018-09-04T07:37:26.843Z,100860.67
2018-09-04T07:39:03.169Z,100744.63
2018-09-04T07:40:40.281Z,100739.77
2018-09-04T07:42:15.501Z,100854.54
2018-09-04T07:43:54.889Z,101070.73
2018-09-04T07:45:30.590Z,101037.61
2018-09-04T07:49:00.656Z,100928.36
2018-09-04T07:50:36.647Z,101182.59
2018-09-04T07:52:12.738Z,101404.10
2018-09-04T07:53:48.031Z,101529.09
2018-09-04T07:55:23.925Z,101619.66
2018-09-04T07:56:59.877Z,101444.02
2018-09-04T07:58:39.185Z,101468.65
2018-09-04T08:00:16.866Z,101308.84
2018-09-04T08:01:52.649Z,101356.70
2018-09-04T08:03:31.436Z,101120.95
2018-09-04T08:05:12.137Z,101200.11
2018-09-04T08:06:48.595Z,101172.28
2018-09-04T08:08:24.889Z,101255.55
2018-09-04T08:10:02.133Z,101493.80
2018-09-04T08:11:37.365Z,101682.91
2018-09-04T08:13:12.634Z,101510.27
2018-09-04T08:14:48.288Z,101496.92
2018-09-04T08:16:25.086Z,101411.39
2018-09-04T08:18:02.649Z,101346.50
2018-09-04T08:19:38.722Z,101533.73
2018-09-04T08:21:14.283Z,101727.34
2018-09-04T08:22:49.516Z,101876.90
2018-09-04T08:24:25.189Z,101969.84
2018-09-04T08:26:00.929Z,102043.06
2018-09-04T08:27:40.781Z,102116.81
2018-09-04T08:29:24.174Z,102166.73
2018-09-04T08:31:01.096Z,102277.39
2018-09-04T08:32:38.177Z,102286.88
2018-09-04T08:34:15.922Z,102062.38
2018-09-04T08:35:52.216Z,101982.00
2018-09-04T08:37:27.858Z,101829.38
2018-09-04T08:39:05.669Z,101988.75
2018-09-04T08:40:41.519Z,102148.77
2018-09-04T08:42:16.765Z,102253.23
2018-09-04T08:43:52.417Z,102303.90
2018-09-04T08:45:29.385Z,102337.17
2018-09-04T08:47:05.600Z,102070.49
2018-09-04T08:48:42.293Z,102029.56
2018-09-04T08:50:29.008Z,101921.78
2018-09-04T08:52:13.155Z,101838.26
2018-09-04T08:53:57.796Z,101759.63
2018-09-04T08:55:34.068Z,101477.63
2018-09-04T08:57:15.770Z,101648.39
2018-09-04T08:58:51.926Z,101919.38
2018-09-04T09:00:28.377Z,102055.48
2018-09-04T09:02:04.204Z,102101.80
2018-09-04T09:03:43.574Z,102089.70
2018-09-04T09:05:20.504Z,101996.20
2018-09-04T09:06:55.915Z,101845.73
2018-09-04T09:08:32.745Z,101805.17
2018-09-04T09:10:09.015Z,101798.02
2018-09-04T09:11:46.910Z,101675.62
2018-09-04T09:13:28.532Z,101737.91
2018-09-04T09:15:09.804Z,101864.07
2018-09-04T09:16:49.422Z,102051.39
2018-09-04T09:18:27.994Z,102169.54
2018-09-04T09:20:10.906Z,102240.22
2018-09-04T09:21:47.080Z,102301.91
2018-09-04T09:23:28.193Z,102300.06
2018-09-04T09:25:04.314Z,102323.03
2018-09-04T09:26:42.416Z,102405.84
2018-09-04T09:28:21.988Z,102403.59
2018-09-04T09:30:00.608Z,102331.56
2018-09-04T09:31:38.240Z,102388.30
2018-09-04T09:33:14.904Z,102464.81
2018-09-04T09:34:51.368Z,102572.03
2018-09-04T09:36:27.087Z,102562.56
2018-09-04T09:38:04.743Z,102466.12
2018-09-04T09:39:40.676Z,102386.86
2018-09-04T09:41:17.652Z,102277.06
2018-09-04T09:43:00.796Z,102251.77
2018-09-04T09:44:40.607Z,102293.61
2018-09-04T09:46:20.465Z,102288.14
2018-09-04T09:48:04.313Z,102182.86
2018-09-04T09:49:44.195Z,102132.94
2018-09-04T09:51:25.565Z,102069.05
2018-09-04T09:53:06.928Z,102037.11
2018-09-04T09:54:47.666Z,102042.97
2018-09-04T09:56:24.834Z,102020.00
2018-09-04T09:58:04.589Z,102037.99
2018-09-04T09:59:40.211Z,102075.23
2018-09-04T10:01:29.268Z,102090.48
2018-09-04T10:03:09.570Z,102071.63
2018-09-04T10:04:46.793Z,102045.55
2018-09-04T10:06:23.086Z,101921.91
2018-09-04T10:07:58.804Z,101791.27
2018-09-04T10:09:37.366Z,101718.91
2018-09-04T10:11:16.252Z,101762.50
2018-09-04T10:12:53.458Z,101766.00
2018-09-04T10:14:29.298Z,101748.94
2018-09-04T10:16:09.460Z,101729.25
2018-09-04T10:17:45.195Z,101635.83
2018-09-04T10:19:22.849Z,101588.28
2018-09-04T10:21:00.295Z,101645.84
2018-09-04T10:22:39.485Z,101770.89
2018-09-04T10:24:17.672Z,101879.96
2018-09-04T10:25:53.632Z,101967.05
2018-09-04T10:27:33.303Z,101968.81
2018-09-04T10:29:11.236Z,101971.91
2018-09-04T10:30:48.875Z,102029.95
2018-09-04T10:32:24.309Z,101980.50
2018-09-04T10:33:59.595Z,102015.53
2018-09-04T10:35:37.618Z,101773.05
2018-09-04T10:37:13.862Z,101782.01
2018-09-04T10:41:09.785Z,101795.41
2018-09-04T10:42:59.699Z,101792.76
2018-09-04T10:44:43.520Z,101718.55
2018-09-04T10:46:23.698Z,101597.47
2018-09-04T10:48:00.037Z,101597.95
2018-09-04T10:49:36.510Z,101776.47
2018-09-04T10:51:13.700Z,101804.77
2018-09-04T10:54:29.380Z,101638.28
2018-09-04T10:56:07.347Z,101851.88
2018-09-04T10:57:44.739Z,101967.70
2018-09-04T10:59:23.559Z,102002.77
2018-09-04T11:00:59.290Z,102145.36
2018-09-04T11:02:35.943Z,102311.70
2018-09-04T11:04:17.081Z,102500.38
2018-09-04T11:05:55.581Z,102338.30
2018-09-04T11:07:43.559Z,101982.92
2018-09-04T11:09:34.174Z,101848.67
2018-09-04T11:11:23.609Z,102112.82
2018-09-04T11:13:00.513Z,102254.10
2018-09-04T11:14:36.381Z,102159.05
2018-09-04T11:16:19.941Z,102249.52
2018-09-04T11:17:56.332Z,102009.72
2018-09-04T11:19:35.922Z,101937.80
2018-09-04T11:21:15.883Z,101876.81
2018-09-04T11:22:52.456Z,101657.80
2018-09-04T11:24:28.794Z,101537.67
2018-09-04T11:26:04.933Z,101557.75
2018-09-04T11:27:41.653Z,101720.16
2018-09-04T11:29:17.240Z,101933.23
2018-09-04T11:30:53.144Z,102018.61
2018-09-04T11:32:29.790Z,102095.95
2018-09-04T11:34:07.035Z,102141.30
2018-09-04T11:35:42.548Z,102181.30
2018-09-04T11:37:18.300Z,102212.79
2018-09-04T11:38:55.068Z,102227.73
2018-09-04T11:40:33.684Z,102207.40
2018-09-04T11:42:14.032Z,101934.52
2018-09-04T11:43:51.445Z,101744.15
2018-09-04T11:45:31.734Z,101928.17
2018-09-04T11:47:07.890Z,102053.09
2018-09-04T11:48:43.540Z,102070.98
2018-09-04T11:50:22.203Z,102169.02
2018-09-04T11:51:58.799Z,102199.13
2018-09-04T11:53:36.494Z,102198.25
2018-09-04T11:55:14.585Z,102317.55
2018-09-04T11:57:07.380Z,102374.69
2018-09-04T11:58:43.678Z,102378.79
2018-09-04T12:00:45.295Z,102335.49
2018-09-04T12:02:30.478Z,102358.87
2018-09-04T12:04:07.934Z,102406.14
2018-09-04T12:05:45.939Z,102373.33
2018-09-04T12:07:22.235Z,102295.86
2018-09-04T12:08:58.654Z,102270.16
2018-09-04T12:10:39.405Z,102244.53
2018-09-04T12:12:22.892Z,102222.42
2018-09-04T12:14:01.935Z,102089.75
2018-09-04T12:15:41.768Z,102190.45
2018-09-04T12:17:19.532Z,102263.81
2018-09-04T12:18:57.269Z,102297.93
2018-09-04T12:20:56.118Z,102366.41
2018-09-04T12:22:31.553Z,102387.95
2018-09-04T12:24:08.033Z,102382.56
2018-09-04T12:25:44.592Z,102466.30
2018-09-04T12:27:20.753Z,102495.10
2018-09-04T12:28:57.882Z,102502.72
2018-09-04T12:30:34.561Z,102475.33
2018-09-04T12:32:12.496Z,102316.25
2018-09-04T12:33:47.931Z,102374.36
2018-09-04T12:35:23.370Z,102468.86
2018-09-04T12:37:00.638Z,102520.28
2018-09-04T12:38:39.456Z,102504.02
2018-09-04T12:40:17.757Z,102488.27
2018-09-04T12:41:54.713Z,102443.61
2018-09-04T12:43:31.345Z,102449.01
2018-09-04T12:45:11.840Z,102432.34
2018-09-04T12:46:47.508Z,102369.22
2018-09-04T12:48:25.245Z,102347.69
2018-09-04T12:50:02.967Z,102425.98
2018-09-04T12:51:39.712Z,102509.71
2018-09-04T12:53:15.668Z,102587.30
2018-09-04T12:54:51.246Z,102589.93
2018-09-04T12:56:29.255Z,102515.52
2018-09-04T12:58:07.999Z,102508.27
2018-09-04T12:59:46.863Z,102430.75
2018-09-04T13:01:24.359Z,102344.87
2018-09-04T13:03:00.813Z,102476.73
2018-09-04T13:04:37.796Z,102509.64
2018-09-04T13:06:13.881Z,102483.91
2018-09-04T13:07:49.769Z,102436.14
2018-09-04T13:09:26.312Z,102450.13
2018-09-04T13:11:02.693Z,102494.19
2018-09-04T13:12:41.259Z,102570.77
2018-09-04T13:14:16.602Z,102593.33
2018-09-04T13:15:56.177Z,102639.28
2018-09-04T13:17:35.965Z,102641.95
2018-09-04T13:19:11.483Z,102590.59
2018-09-04T13:20:46.896Z,102525.66
2018-09-04T13:22:24.624Z,102417.48
2018-09-04T13:24:02.841Z,102337.38
2018-09-04T13:25:39.092Z,102146.59
2018-09-04T13:27:15.822Z,102028.63
2018-09-04T13:28:51.293Z,101917.68
2018-09-04T13:30:28.077Z,101794.20
2018-09-04T13:32:05.359Z,101713.03
2018-09-04T13:33:43.217Z,101676.09
2018-09-04T13:35:19.584Z,101694.02
2018-09-04T13:36:55.323Z,101787.78
2018-09-04T13:38:33.534Z,102076.54
2018-09-04T13:40:16.481Z,102290.75
2018-09-04T13:41:54.809Z,102327.73
2018-09-04T13:43:33.897Z,102331.72
2018-09-04T13:45:10.685Z,102523.07
2018-09-04T13:47:20.043Z,102652.43
2018-09-04T13:48:59.969Z,102590.64
2018-09-04T13:50:38.932Z,102703.88
2018-09-04T13:52:16.183Z,102768.88
2018-09-04T13:53:56.097Z,102806.36
2018-09-04T13:55:49.794Z,102451.41
2018-09-04T13:57:41.519Z,102472.16
2018-09-04T13:59:26.864Z,102560.02
2018-09-04T14:01:06.094Z,102688.52
2018-09-04T14:02:45.653Z,102557.28
2018-09-04T14:04:24.540Z,102741.27
2018-09-04T14:06:00.747Z,102945.27
2018-09-04T14:07:38.351Z,103020.25
2018-09-04T14:09:21.679Z,102910.91
2018-09-04T14:10:58.201Z,102894.67
2018-09-04T14:12:33.888Z,102896.45
2018-09-04T14:14:16.502Z,102913.58
2018-09-04T14:16:12.481Z,102861.56
2018-09-04T14:19:41.290Z,102839.96
2018-09-04T14:21:17.564Z,102748.27
2018-09-04T14:22:53.292Z,102688.67
2018-09-04T14:24:31.680Z,102664.28
2018-09-04T14:26:07.300Z,102640.27
2018-09-04T14:27:45.734Z,102644.78
2018-09-04T14:29:53.164Z,102654.29
2018-09-04T14:30:59.481Z,102685.34
2018-09-04T14:32:35.939Z,102670.94
2018-09-04T14:34:11.629Z,102750.76
2018-09-04T14:35:48.543Z,102833.75
2018-09-04T14:37:24.146Z,102849.05
2018-09-04T14:39:02.063Z,102759.31
2018-09-04T14:40:37.684Z,102741.72
2018-09-04T14:42:15.073Z,102632.94
2018-09-04T14:43:50.281Z,102506.24
2018-09-04T14:45:26.475Z,102515.16
2018-09-04T14:47:02.691Z,102569.23
2018-09-04T14:48:38.583Z,102514.19
2018-09-04T14:50:21.343Z,102437.62
2018-09-04T14:52:01.733Z,102419.62
2018-09-04T14:53:37.934Z,102438.98
2018-09-04T14:55:16.508Z,102498.81
2018-09-04T14:56:55.466Z,102616.03
2018-09-04T14:58:32.057Z,102683.17
2018-09-04T15:00:09.987Z,102434.00
2018-09-04T15:01:48.806Z,102225.84
2018-09-04T15:07:52.567Z,102076.89
2018-09-04T15:09:28.658Z,101943.30
2018-09-04T15:11:03.868Z,101396.95
2018-09-04T15:12:42.526Z,101152.60
2018-09-04T15:14:17.848Z,101007.39
2018-09-04T15:15:54.416Z,100879.02
2018-09-04T15:17:35.540Z,100694.23
2018-09-04T15:19:12.020Z,100628.20
2018-09-04T15:20:51.622Z,100479.38
2018-09-04T15:22:26.859Z,100360.81
2018-09-04T15:24:03.527Z,100327.92
2018-09-04T15:25:39.963Z,100263.69
2018-09-04T15:27:20.220Z,100301.94
2018-09-04T15:28:57.032Z,100175.28
2018-09-04T15:30:32.311Z,100062.71
2018-09-04T15:32:09.545Z,100004.52
2018-09-04T15:33:47.029Z,99890.80
2018-09-04T15:35:25.179Z,99817.87
2018-09-04T15:37:00.677Z,99770.88
2018-09-04T15:38:38.998Z,99718.09
2018-09-04T15:40:14.245Z,99658.65
2018-09-04T15:41:49.796Z,99630.67
2018-09-04T15:43:25.956Z,99626.34
2018-09-04T15:45:01.435Z,99674.58
2018-09-04T15:46:37.043Z,99747.42
2018-09-04T15:48:13.286Z,99856.50
2018-09-04T15:49:49.538Z,99855.63
2018-09-04T15:51:24.840Z,99941.80
2018-09-04T15:53:00.065Z,99934.64
2018-09-04T15:54:36.376Z,99829.75
2018-09-04T15:56:11.643Z,99840.94
2018-09-04T15:57:47.547Z,99914.27
2018-09-04T15:59:22.743Z,99899.08
2018-09-04T16:01:04.020Z,99824.05
2018-09-04T16:02:40.920Z,99706.63
2018-09-04T16:04:16.194Z,99732.28
2018-09-04T16:05:51.591Z,99602.81
2018-09-04T16:07:28.439Z,99641.40
2018-09-04T16:09:06.267Z,99588.17
2018-09-04T16:10:43.354Z,99679.89
2018-09-04T16:12:19.717Z,99813.45
2018-09-04T16:13:59.064Z,99969.30
2018-09-04T16:18:00.517Z,100113.38
2018-09-04T16:19:44.706Z,100134.73
2018-09-04T16:21:21.844Z,100199.63
2018-09-04T16:22:58.819Z,100277.03
2018-09-04T16:24:37.304Z,100338.94
2018-09-04T16:26:14.744Z,100323.84
2018-09-04T16:27:52.085Z,100396.36
2018-09-04T16:29:28.404Z,100437.31
2018-09-04T16:31:06.775Z,100449.92
2018-09-04T16:32:43.478Z,100462.80
2018-09-04T16:34:19.264Z,100494.97
2018-09-04T16:35:55.514Z,100536.85
2018-09-04T16:37:31.369Z,100531.42
2018-09-04T16:39:07.491Z,100500.21
2018-09-04T16:40:43.898Z,100533.36
2018-09-04T16:42:23.099Z,100576.19
2018-09-04T16:43:58.508Z,100593.44
2018-09-04T16:45:41.252Z,100618.12
2018-09-04T16:47:24.985Z,100635.56
2018-09-04T16:49:00.356Z,100564.58
2018-09-04T16:50:36.394Z,100591.03
2018-09-04T16:52:19.662Z,100615.95
2018-09-04T16:53:56.772Z,100629.05
2018-09-04T16:55:34.456Z,100643.23
2018-09-04T16:57:17.711Z,100593.27
2018-09-04T16:58:59.206Z,100566.52
2018-09-04T17:00:37.171Z,100565.73
2018-09-04T17:02:13.976Z,100582.98
2018-09-04T17:03:50.488Z,100567.48
2018-09-04T17:05:29.489Z,100513.98
2018-09-04T17:07:08.630Z,100459.75
2018-09-04T17:09:06.626Z,100445.00
2018-09-04T17:10:53.775Z,100465.27
2018-09-04T17:12:40.462Z,100477.66
2018-09-04T17:14:23.151Z,100474.07
2018-09-04T17:16:01.377Z,100512.45
2018-09-04T17:17:36.657Z,100521.86
2018-09-04T17:19:17.389Z,100492.40
2018-09-04T17:21:03.021Z,100463.91
2018-09-04T17:22:48.550Z,100436.30
2018-09-04T17:24:28.861Z,100400.17
2018-09-04T17:26:04.197Z,100365.52
2018-09-04T17:27:40.515Z,100341.48
2018-09-04T17:29:18.624Z,100325.52
2018-09-04T17:30:58.809Z,100321.93
2018-09-04T17:32:36.553Z,100341.19
2018-09-04T17:34:20.760Z,100342.93
2018-09-04T17:35:58.861Z,100219.64
2018-09-04T17:37:37.878Z,100156.59
2018-09-04T17:39:16.022Z,100050.41
2018-09-04T17:40:52.515Z,99973.97
2018-09-04T17:42:33.370Z,99937.67
2018-09-04T17:44:20.028Z,99903.86
2018-09-04T17:46:02.530Z,99928.77
2018-09-04T17:47:41.516Z,100051.38
2018-09-04T17:49:18.477Z,99999.87
2018-09-04T17:52:48.193Z,100075.12
2018-09-04T17:54:25.491Z,100115.42
2018-09-04T17:56:08.162Z,100135.04
2018-09-04T17:57:46.250Z,100170.16
2018-09-04T17:59:22.992Z,100213.28
2018-09-04T18:01:15.382Z,100213.28
2018-09-04T18:03:16.752Z,100273.86
2018-09-04T18:04:57.630Z,100112.41
2018-09-04T18:06:35.086Z,100040.09
2018-09-04T18:08:12.602Z,99999.23
2018-09-04T18:09:50.667Z,100011.32
2018-09-04T18:11:32.210Z,100103.73
2018-09-04T18:13:08.442Z,100216.19
2018-09-04T18:14:45.716Z,100290.88
2018-09-04T18:16:23.903Z,100371.52
2018-09-04T18:17:59.952Z,100417.34
2018-09-04T18:19:37.439Z,100364.34
2018-09-04T18:21:14.991Z,100356.91
2018-09-04T18:22:59.542Z,100324.98
2018-09-04T18:24:37.210Z,100231.49
2018-09-04T18:26:13.884Z,99987.94
2018-09-04T18:27:52.799Z,99979.66
2018-09-04T18:29:28.433Z,100003.97
2018-09-04T18:31:05.954Z,99904.13
2018-09-04T18:32:42.003Z,99798.41
2018-09-04T18:34:17.213Z,99714.62
2018-09-04T18:35:52.676Z,99674.22
2018-09-04T18:37:30.086Z,99754.06
2018-09-04T18:39:06.906Z,99912.60
2018-09-04T18:40:44.604Z,100044.57
2018-09-04T18:42:19.890Z,100135.69
2018-09-04T18:43:55.400Z,100253.00
2018-09-04T18:45:51.158Z,100357.23
2018-09-04T18:47:29.259Z,100462.42
2018-09-04T18:49:04.751Z,100501.94
2018-09-04T18:50:44.217Z,100480.63
2018-09-04T18:52:22.493Z,100510.08
2018-09-04T18:53:59.624Z,100534.11
2018-09-04T18:55:37.297Z,100465.62
2018-09-04T18:57:13.239Z,100399.74
2018-09-04T18:58:50.720Z,100494.69
2018-09-04T19:00:28.613Z,100602.94
2018-09-04T19:02:08.278Z,100673.89
2018-09-04T19:03:44.702Z,100718.89
2018-09-04T19:05:20.061Z,100686.42
2018-09-04T19:06:57.923Z,100674.77
2018-09-04T19:08:34.958Z,100703.86
2018-09-04T19:10:12.464Z,100668.59
2018-09-04T19:11:49.502Z,100637.45